sensor_id;sensor_type;location;lat;lon;timestamp;temperature;humidity
10459;DHT22;5277;48.722;8.736;2024-02-14T00:00:10;3.30;99.90
10459;DHT22;5277;48.722;8.736;2024-02-14T00:02:43;3.30;99.90
10459;DHT22;5277;48.722;8.736;2024-02-14T00:05:09;3.20;99.90
10459;DHT22;5277;48.722;8.736;2024-02-14T00:07:36;3.20;99.90
10459;DHT22;5277;48.722;8.736;2024-02-14T00:10:02;3.30;99.90
10459;DHT22;5277;48.722;8.736;2024-02-14T00:12:28;3.30;99.90
10459;DHT22;5277;48.722;8.736;2024-02-14T00:14:54;3.30;99.90
10459;DHT22;5277;48.722;8.736;2024-02-14T00:17:20;3.40;99.90
10459;DHT22;5277;48.722;8.736;2024-02-14T00:19:45;3.40;99.90
10459;DHT22;5277;48.722;8.736;2024-02-14T00:22:11;3.50;99.90
10459;DHT22;5277;48.722;8.736;2024-02-14T00:24:36;3.50;99.90
10459;DHT22;5277;48.722;8.736;2024-02-14T00:27:02;3.60;99.90
10459;DHT22;5277;48.722;8.736;2024-02-14T00:29:28;3.60;99.90
10459;DHT22;5277;48.722;8.736;2024-02-14T00:31:54;3.60;99.90
10459;DHT22;5277;48.722;8.736;2024-02-14T00:34:19;3.60;99.90
10459;DHT22;5277;48.722;8.736;2024-02-14T00:36:46;3.70;99.90
10459;DHT22;5277;48.722;8.736;2024-02-14T00:39:12;3.70;99.90
10459;DHT22;5277;48.722;8.736;2024-02-14T00:41:37;3.80;99.90
10459;DHT22;5277;48.722;8.736;2024-02-14T00:44:03;3.80;99.90
10459;DHT22;5277;48.722;8.736;2024-02-14T00:46:29;3.90;99.90
10459;DHT22;5277;48.722;8.736;2024-02-14T00:48:55;3.90;99.90
10459;DHT22;5277;48.722;8.736;2024-02-14T00:51:21;4.00;99.90
10459;DHT22;5277;48.722;8.736;2024-02-14T00:53:47;3.90;99.90
10459;DHT22;5277;48.722;8.736;2024-02-14T00:56:13;4.00;99.90
10459;DHT22;5277;48.722;8.736;2024-02-14T00:58:38;4.00;99.90
10459;DHT22;5277;48.722;8.736;2024-02-14T01:01:04;4.00;99.90
10459;DHT22;5277;48.722;8.736;2024-02-14T01:03:33;4.00;99.90
10459;DHT22;5277;48.722;8.736;2024-02-14T01:05:58;4.10;99.90
10459;DHT22;5277;48.722;8.736;2024-02-14T01:08:24;4.10;99.90
10459;DHT22;5277;48.722;8.736;2024-02-14T01:10:49;4.20;99.90
10459;DHT22;5277;48.722;8.736;2024-02-14T01:13:17;4.20;99.90
10459;DHT22;5277;48.722;8.736;2024-02-14T01:15:43;4.20;99.90
10459;DHT22;5277;48.722;8.736;2024-02-14T01:18:08;4.30;99.90
10459;DHT22;5277;48.722;8.736;2024-02-14T01:20:34;4.30;99.90
10459;DHT22;5277;48.722;8.736;2024-02-14T01:22:59;4.30;99.90
10459;DHT22;5277;48.722;8.736;2024-02-14T01:25:26;4.30;99.90
10459;DHT22;5277;48.722;8.736;2024-02-14T01:27:51;4.30;99.90
10459;DHT22;5277;48.722;8.736;2024-02-14T01:30:18;4.30;99.90
10459;DHT22;5277;48.722;8.736;2024-02-14T01:32:44;4.30;99.90
10459;DHT22;5277;48.722;8.736;2024-02-14T01:35:10;4.30;99.90
10459;DHT22;5277;48.722;8.736;2024-02-14T01:37:35;4.30;99.90
10459;DHT22;5277;48.722;8.736;2024-02-14T01:40:01;4.40;99.90
10459;DHT22;5277;48.722;8.736;2024-02-14T01:42:27;4.40;99.90
10459;DHT22;5277;48.722;8.736;2024-02-14T01:44:53;4.40;99.90
10459;DHT22;5277;48.722;8.736;2024-02-14T01:47:20;4.40;99.90
10459;DHT22;5277;48.722;8.736;2024-02-14T01:49:47;4.40;99.90
10459;DHT22;5277;48.722;8.736;2024-02-14T01:52:12;4.30;99.90
10459;DHT22;5277;48.722;8.736;2024-02-14T01:54:39;4.40;99.90
10459;DHT22;5277;48.722;8.736;2024-02-14T01:57:05;4.30;99.90
10459;DHT22;5277;48.722;8.736;2024-02-14T01:59:33;4.30;99.90
10459;DHT22;5277;48.722;8.736;2024-02-14T02:02:00;4.30;99.90
10459;DHT22;5277;48.722;8.736;2024-02-14T02:04:25;4.20;99.90
10459;DHT22;5277;48.722;8.736;2024-02-14T02:06:51;4.20;99.90
10459;DHT22;5277;48.722;8.736;2024-02-14T02:09:22;4.20;99.90
10459;DHT22;5277;48.722;8.736;2024-02-14T02:11:52;4.20;99.90
10459;DHT22;5277;48.722;8.736;2024-02-14T02:14:21;4.20;99.90
10459;DHT22;5277;48.722;8.736;2024-02-14T02:16:48;4.20;99.90
10459;DHT22;5277;48.722;8.736;2024-02-14T02:19:14;4.10;99.90
10459;DHT22;5277;48.722;8.736;2024-02-14T02:21:44;4.20;99.90
10459;DHT22;5277;48.722;8.736;2024-02-14T02:24:11;4.10;99.90
10459;DHT22;5277;48.722;8.736;2024-02-14T02:26:37;4.00;99.90
10459;DHT22;5277;48.722;8.736;2024-02-14T02:29:02;4.00;99.90
10459;DHT22;5277;48.722;8.736;2024-02-14T02:31:30;4.00;99.90
10459;DHT22;5277;48.722;8.736;2024-02-14T02:33:56;3.90;99.90
10459;DHT22;5277;48.722;8.736;2024-02-14T02:36:21;3.90;99.90
10459;DHT22;5277;48.722;8.736;2024-02-14T02:38:49;3.90;99.90
10459;DHT22;5277;48.722;8.736;2024-02-14T02:41:15;4.00;99.90
10459;DHT22;5277;48.722;8.736;2024-02-14T02:43:41;4.00;99.90
10459;DHT22;5277;48.722;8.736;2024-02-14T02:46:09;4.00;99.90
10459;DHT22;5277;48.722;8.736;2024-02-14T02:48:35;4.00;99.90
10459;DHT22;5277;48.722;8.736;2024-02-14T02:51:01;4.00;99.90
10459;DHT22;5277;48.722;8.736;2024-02-14T02:53:27;3.90;99.90
10459;DHT22;5277;48.722;8.736;2024-02-14T02:55:52;3.90;99.90
10459;DHT22;5277;48.722;8.736;2024-02-14T02:58:20;4.00;99.90
10459;DHT22;5277;48.722;8.736;2024-02-14T03:00:46;3.90;99.90
10459;DHT22;5277;48.722;8.736;2024-02-14T03:03:14;3.90;99.90
10459;DHT22;5277;48.722;8.736;2024-02-14T03:05:41;3.80;99.90
10459;DHT22;5277;48.722;8.736;2024-02-14T03:08:07;3.80;99.90
10459;DHT22;5277;48.722;8.736;2024-02-14T03:10:33;3.70;99.90
10459;DHT22;5277;48.722;8.736;2024-02-14T03:12:59;3.70;99.90
10459;DHT22;5277;48.722;8.736;2024-02-14T03:15:24;3.60;99.90
10459;DHT22;5277;48.722;8.736;2024-02-14T03:17:51;3.60;99.90
10459;DHT22;5277;48.722;8.736;2024-02-14T03:20:16;3.60;99.90
10459;DHT22;5277;48.722;8.736;2024-02-14T03:22:42;3.50;99.90
10459;DHT22;5277;48.722;8.736;2024-02-14T03:25:18;3.50;99.90
10459;DHT22;5277;48.722;8.736;2024-02-14T03:27:44;3.40;99.90
10459;DHT22;5277;48.722;8.736;2024-02-14T03:30:16;3.30;99.90
10459;DHT22;5277;48.722;8.736;2024-02-14T03:32:43;3.30;99.90
10459;DHT22;5277;48.722;8.736;2024-02-14T03:35:09;3.30;99.90
10459;DHT22;5277;48.722;8.736;2024-02-14T03:37:37;3.20;99.90
10459;DHT22;5277;48.722;8.736;2024-02-14T03:40:05;3.20;99.90
10459;DHT22;5277;48.722;8.736;2024-02-14T03:42:32;3.30;99.90
10459;DHT22;5277;48.722;8.736;2024-02-14T03:44:58;3.20;99.90
10459;DHT22;5277;48.722;8.736;2024-02-14T03:47:28;3.20;99.90
10459;DHT22;5277;48.722;8.736;2024-02-14T03:49:54;3.20;99.90
10459;DHT22;5277;48.722;8.736;2024-02-14T03:52:20;3.30;99.90
10459;DHT22;5277;48.722;8.736;2024-02-14T03:54:48;3.40;99.90
10459;DHT22;5277;48.722;8.736;2024-02-14T03:57:13;3.50;99.90
10459;DHT22;5277;48.722;8.736;2024-02-14T03:59:39;3.50;99.90
10459;DHT22;5277;48.722;8.736;2024-02-14T04:02:05;3.50;99.90
10459;DHT22;5277;48.722;8.736;2024-02-14T04:04:36;3.40;99.90
10459;DHT22;5277;48.722;8.736;2024-02-14T04:07:02;3.50;99.90
10459;DHT22;5277;48.722;8.736;2024-02-14T04:09:28;3.40;99.90
10459;DHT22;5277;48.722;8.736;2024-02-14T04:11:53;3.40;99.90
10459;DHT22;5277;48.722;8.736;2024-02-14T04:14:19;3.30;99.90
10459;DHT22;5277;48.722;8.736;2024-02-14T04:16:44;3.30;99.90
10459;DHT22;5277;48.722;8.736;2024-02-14T04:19:11;3.30;99.90
10459;DHT22;5277;48.722;8.736;2024-02-14T04:21:38;3.30;99.90
10459;DHT22;5277;48.722;8.736;2024-02-14T04:24:04;3.20;99.90
10459;DHT22;5277;48.722;8.736;2024-02-14T04:26:30;3.20;99.90
10459;DHT22;5277;48.722;8.736;2024-02-14T04:28:55;3.10;99.90
10459;DHT22;5277;48.722;8.736;2024-02-14T04:31:21;3.10;99.90
10459;DHT22;5277;48.722;8.736;2024-02-14T04:33:47;3.10;99.90
10459;DHT22;5277;48.722;8.736;2024-02-14T04:36:18;3.00;99.90
10459;DHT22;5277;48.722;8.736;2024-02-14T04:38:49;3.00;99.90
10459;DHT22;5277;48.722;8.736;2024-02-14T04:41:15;2.90;99.90
10459;DHT22;5277;48.722;8.736;2024-02-14T04:43:41;3.00;99.90
10459;DHT22;5277;48.722;8.736;2024-02-14T04:46:07;3.00;99.90
10459;DHT22;5277;48.722;8.736;2024-02-14T04:48:34;3.00;99.90
10459;DHT22;5277;48.722;8.736;2024-02-14T04:51:01;2.90;99.90
10459;DHT22;5277;48.722;8.736;2024-02-14T04:53:26;3.00;99.90
10459;DHT22;5277;48.722;8.736;2024-02-14T04:55:53;2.90;99.90
10459;DHT22;5277;48.722;8.736;2024-02-14T04:58:19;3.00;99.90
10459;DHT22;5277;48.722;8.736;2024-02-14T05:00:45;3.00;99.90
10459;DHT22;5277;48.722;8.736;2024-02-14T05:03:11;3.00;99.90
10459;DHT22;5277;48.722;8.736;2024-02-14T05:05:37;3.00;99.90
10459;DHT22;5277;48.722;8.736;2024-02-14T05:08:03;3.00;99.90
10459;DHT22;5277;48.722;8.736;2024-02-14T05:10:29;3.00;99.90
10459;DHT22;5277;48.722;8.736;2024-02-14T05:12:55;3.00;99.90
10459;DHT22;5277;48.722;8.736;2024-02-14T05:15:20;3.00;99.90
10459;DHT22;5277;48.722;8.736;2024-02-14T05:17:46;3.00;99.90
10459;DHT22;5277;48.722;8.736;2024-02-14T05:20:12;3.00;99.90
10459;DHT22;5277;48.722;8.736;2024-02-14T05:22:38;3.10;99.90
10459;DHT22;5277;48.722;8.736;2024-02-14T05:25:04;3.00;99.90
10459;DHT22;5277;48.722;8.736;2024-02-14T05:27:31;3.00;99.90
10459;DHT22;5277;48.722;8.736;2024-02-14T05:29:56;3.10;99.90
10459;DHT22;5277;48.722;8.736;2024-02-14T05:32:23;3.10;99.90
10459;DHT22;5277;48.722;8.736;2024-02-14T05:34:50;3.10;99.90
10459;DHT22;5277;48.722;8.736;2024-02-14T05:37:16;3.10;99.90
10459;DHT22;5277;48.722;8.736;2024-02-14T05:39:41;3.10;99.90
10459;DHT22;5277;48.722;8.736;2024-02-14T05:42:07;3.00;99.90
10459;DHT22;5277;48.722;8.736;2024-02-14T05:44:32;3.00;99.90
10459;DHT22;5277;48.722;8.736;2024-02-14T05:46:58;3.00;99.90
10459;DHT22;5277;48.722;8.736;2024-02-14T05:49:24;3.10;99.90
10459;DHT22;5277;48.722;8.736;2024-02-14T05:51:50;3.10;99.90
10459;DHT22;5277;48.722;8.736;2024-02-14T05:54:17;3.20;99.90
10459;DHT22;5277;48.722;8.736;2024-02-14T05:56:43;3.20;99.90
10459;DHT22;5277;48.722;8.736;2024-02-14T05:59:10;3.30;99.90
10459;DHT22;5277;48.722;8.736;2024-02-14T06:01:35;3.40;99.90
10459;DHT22;5277;48.722;8.736;2024-02-14T06:04:01;3.40;99.90
10459;DHT22;5277;48.722;8.736;2024-02-14T06:06:26;3.40;99.90
10459;DHT22;5277;48.722;8.736;2024-02-14T06:08:52;3.40;99.90
10459;DHT22;5277;48.722;8.736;2024-02-14T06:11:18;3.40;99.90
10459;DHT22;5277;48.722;8.736;2024-02-14T06:13:47;3.40;99.90
10459;DHT22;5277;48.722;8.736;2024-02-14T06:16:13;3.40;99.90
10459;DHT22;5277;48.722;8.736;2024-02-14T06:18:38;3.40;99.90
10459;DHT22;5277;48.722;8.736;2024-02-14T06:21:05;3.50;99.90
10459;DHT22;5277;48.722;8.736;2024-02-14T06:23:31;3.60;99.90
10459;DHT22;5277;48.722;8.736;2024-02-14T06:25:57;3.60;99.90
10459;DHT22;5277;48.722;8.736;2024-02-14T06:28:23;3.70;99.90
10459;DHT22;5277;48.722;8.736;2024-02-14T06:30:48;3.70;99.90
10459;DHT22;5277;48.722;8.736;2024-02-14T06:33:14;3.80;99.90
10459;DHT22;5277;48.722;8.736;2024-02-14T06:35:39;3.80;99.90
10459;DHT22;5277;48.722;8.736;2024-02-14T06:38:05;3.80;99.90
10459;DHT22;5277;48.722;8.736;2024-02-14T06:40:32;3.70;99.90
10459;DHT22;5277;48.722;8.736;2024-02-14T06:42:57;3.70;99.90
10459;DHT22;5277;48.722;8.736;2024-02-14T06:45:28;3.80;99.90
10459;DHT22;5277;48.722;8.736;2024-02-14T06:47:54;3.90;99.90
10459;DHT22;5277;48.722;8.736;2024-02-14T06:50:20;3.90;99.90
10459;DHT22;5277;48.722;8.736;2024-02-14T06:52:45;3.90;99.90
10459;DHT22;5277;48.722;8.736;2024-02-14T06:55:11;3.80;99.90
10459;DHT22;5277;48.722;8.736;2024-02-14T06:57:37;3.90;99.90
10459;DHT22;5277;48.722;8.736;2024-02-14T07:00:03;3.90;99.90
10459;DHT22;5277;48.722;8.736;2024-02-14T07:02:31;4.00;99.90
10459;DHT22;5277;48.722;8.736;2024-02-14T07:04:57;4.00;99.90
10459;DHT22;5277;48.722;8.736;2024-02-14T07:07:22;4.00;99.90
10459;DHT22;5277;48.722;8.736;2024-02-14T07:09:48;4.10;99.90
10459;DHT22;5277;48.722;8.736;2024-02-14T07:12:13;4.10;99.90
10459;DHT22;5277;48.722;8.736;2024-02-14T07:14:39;4.10;99.90
10459;DHT22;5277;48.722;8.736;2024-02-14T07:17:05;4.30;99.90
10459;DHT22;5277;48.722;8.736;2024-02-14T07:19:30;4.30;99.90
10459;DHT22;5277;48.722;8.736;2024-02-14T07:21:56;4.40;99.90
10459;DHT22;5277;48.722;8.736;2024-02-14T07:24:21;4.40;99.90
10459;DHT22;5277;48.722;8.736;2024-02-14T07:26:47;4.40;99.90
10459;DHT22;5277;48.722;8.736;2024-02-14T07:29:13;4.50;99.90
10459;DHT22;5277;48.722;8.736;2024-02-14T07:31:38;4.60;99.90
10459;DHT22;5277;48.722;8.736;2024-02-14T07:34:05;4.60;99.90
10459;DHT22;5277;48.722;8.736;2024-02-14T07:36:31;4.70;99.90
10459;DHT22;5277;48.722;8.736;2024-02-14T07:38:57;4.80;99.90
10459;DHT22;5277;48.722;8.736;2024-02-14T07:41:23;4.90;99.90
10459;DHT22;5277;48.722;8.736;2024-02-14T07:43:48;4.90;99.90
10459;DHT22;5277;48.722;8.736;2024-02-14T07:46:20;4.90;99.90
10459;DHT22;5277;48.722;8.736;2024-02-14T07:48:48;5.00;99.90
10459;DHT22;5277;48.722;8.736;2024-02-14T07:51:14;5.00;99.90
10459;DHT22;5277;48.722;8.736;2024-02-14T07:53:39;5.10;99.90
10459;DHT22;5277;48.722;8.736;2024-02-14T07:56:05;5.20;99.90
10459;DHT22;5277;48.722;8.736;2024-02-14T07:58:31;5.20;99.90
10459;DHT22;5277;48.722;8.736;2024-02-14T08:00:56;5.30;99.90
10459;DHT22;5277;48.722;8.736;2024-02-14T08:03:22;5.30;99.90
10459;DHT22;5277;48.722;8.736;2024-02-14T08:05:48;5.40;99.90
10459;DHT22;5277;48.722;8.736;2024-02-14T08:08:13;5.50;99.90
10459;DHT22;5277;48.722;8.736;2024-02-14T08:10:39;5.50;99.90
10459;DHT22;5277;48.722;8.736;2024-02-14T08:13:05;5.60;99.90
10459;DHT22;5277;48.722;8.736;2024-02-14T08:15:30;5.60;99.90
10459;DHT22;5277;48.722;8.736;2024-02-14T08:17:56;5.70;99.90
10459;DHT22;5277;48.722;8.736;2024-02-14T08:20:22;5.80;99.90
10459;DHT22;5277;48.722;8.736;2024-02-14T08:22:49;5.80;99.90
10459;DHT22;5277;48.722;8.736;2024-02-14T08:25:15;5.90;99.90
10459;DHT22;5277;48.722;8.736;2024-02-14T08:27:40;6.00;99.90
10459;DHT22;5277;48.722;8.736;2024-02-14T08:30:07;6.10;99.90
10459;DHT22;5277;48.722;8.736;2024-02-14T08:32:34;6.20;99.90
10459;DHT22;5277;48.722;8.736;2024-02-14T08:34:59;6.30;99.90
10459;DHT22;5277;48.722;8.736;2024-02-14T08:37:25;6.30;99.90
10459;DHT22;5277;48.722;8.736;2024-02-14T08:39:51;6.30;99.90
10459;DHT22;5277;48.722;8.736;2024-02-14T08:42:16;6.40;99.90
10459;DHT22;5277;48.722;8.736;2024-02-14T08:44:42;6.40;99.90
10459;DHT22;5277;48.722;8.736;2024-02-14T08:47:07;6.50;99.90
10459;DHT22;5277;48.722;8.736;2024-02-14T08:49:34;6.50;99.90
10459;DHT22;5277;48.722;8.736;2024-02-14T08:51:59;6.60;99.90
10459;DHT22;5277;48.722;8.736;2024-02-14T08:54:25;6.60;99.90
10459;DHT22;5277;48.722;8.736;2024-02-14T08:56:53;6.70;99.90
10459;DHT22;5277;48.722;8.736;2024-02-14T08:59:21;6.70;99.90
10459;DHT22;5277;48.722;8.736;2024-02-14T09:01:47;6.80;99.90
10459;DHT22;5277;48.722;8.736;2024-02-14T09:04:13;6.90;99.90
10459;DHT22;5277;48.722;8.736;2024-02-14T09:06:39;7.00;99.90
10459;DHT22;5277;48.722;8.736;2024-02-14T09:09:06;7.10;99.90
10459;DHT22;5277;48.722;8.736;2024-02-14T09:11:32;7.20;99.90
10459;DHT22;5277;48.722;8.736;2024-02-14T09:13:57;7.30;99.90
10459;DHT22;5277;48.722;8.736;2024-02-14T09:16:30;7.30;99.90
10459;DHT22;5277;48.722;8.736;2024-02-14T09:18:56;7.40;99.90
10459;DHT22;5277;48.722;8.736;2024-02-14T09:21:22;7.50;99.90
10459;DHT22;5277;48.722;8.736;2024-02-14T09:23:48;7.60;99.90
10459;DHT22;5277;48.722;8.736;2024-02-14T09:26:13;7.70;99.90
10459;DHT22;5277;48.722;8.736;2024-02-14T09:28:43;7.70;99.90
10459;DHT22;5277;48.722;8.736;2024-02-14T09:31:09;7.80;99.90
10459;DHT22;5277;48.722;8.736;2024-02-14T09:33:38;7.80;99.90
10459;DHT22;5277;48.722;8.736;2024-02-14T09:36:04;7.90;99.90
10459;DHT22;5277;48.722;8.736;2024-02-14T09:38:33;8.00;99.90
10459;DHT22;5277;48.722;8.736;2024-02-14T09:41:10;8.10;99.90
10459;DHT22;5277;48.722;8.736;2024-02-14T09:43:44;8.30;99.90
10459;DHT22;5277;48.722;8.736;2024-02-14T09:46:12;8.30;99.90
10459;DHT22;5277;48.722;8.736;2024-02-14T09:48:39;8.40;99.90
10459;DHT22;5277;48.722;8.736;2024-02-14T09:51:05;8.40;99.90
10459;DHT22;5277;48.722;8.736;2024-02-14T09:53:32;8.50;99.90
10459;DHT22;5277;48.722;8.736;2024-02-14T09:55:59;8.70;99.90
10459;DHT22;5277;48.722;8.736;2024-02-14T09:58:25;8.80;99.90
10459;DHT22;5277;48.722;8.736;2024-02-14T10:00:52;9.00;99.90
10459;DHT22;5277;48.722;8.736;2024-02-14T10:03:18;9.10;99.90
10459;DHT22;5277;48.722;8.736;2024-02-14T10:05:43;9.20;99.90
10459;DHT22;5277;48.722;8.736;2024-02-14T10:08:10;9.40;99.90
10459;DHT22;5277;48.722;8.736;2024-02-14T10:10:37;9.50;99.90
10459;DHT22;5277;48.722;8.736;2024-02-14T10:13:06;9.70;99.90
10459;DHT22;5277;48.722;8.736;2024-02-14T10:15:33;9.90;99.90
10459;DHT22;5277;48.722;8.736;2024-02-14T10:17:59;10.10;99.90
10459;DHT22;5277;48.722;8.736;2024-02-14T10:20:25;10.30;99.90
10459;DHT22;5277;48.722;8.736;2024-02-14T10:22:52;10.50;99.90
10459;DHT22;5277;48.722;8.736;2024-02-14T10:25:25;10.70;99.90
10459;DHT22;5277;48.722;8.736;2024-02-14T10:27:51;10.90;99.90
10459;DHT22;5277;48.722;8.736;2024-02-14T10:30:17;11.00;99.90
10459;DHT22;5277;48.722;8.736;2024-02-14T10:32:42;11.10;99.90
10459;DHT22;5277;48.722;8.736;2024-02-14T10:35:13;11.20;99.90
10459;DHT22;5277;48.722;8.736;2024-02-14T10:37:39;11.30;99.90
10459;DHT22;5277;48.722;8.736;2024-02-14T10:40:05;11.40;99.90
10459;DHT22;5277;48.722;8.736;2024-02-14T10:42:32;11.50;99.90
10459;DHT22;5277;48.722;8.736;2024-02-14T10:44:57;11.50;99.90
10459;DHT22;5277;48.722;8.736;2024-02-14T10:47:29;11.70;99.90
10459;DHT22;5277;48.722;8.736;2024-02-14T10:50:01;11.80;99.90
10459;DHT22;5277;48.722;8.736;2024-02-14T10:52:32;11.90;99.90
10459;DHT22;5277;48.722;8.736;2024-02-14T10:55:01;12.00;99.90
10459;DHT22;5277;48.722;8.736;2024-02-14T10:57:27;12.00;99.90
10459;DHT22;5277;48.722;8.736;2024-02-14T10:59:54;12.10;99.90
10459;DHT22;5277;48.722;8.736;2024-02-14T11:02:22;12.20;99.90
10459;DHT22;5277;48.722;8.736;2024-02-14T11:04:48;12.20;99.90
10459;DHT22;5277;48.722;8.736;2024-02-14T11:07:19;12.30;99.90
10459;DHT22;5277;48.722;8.736;2024-02-14T11:09:45;12.20;99.90
10459;DHT22;5277;48.722;8.736;2024-02-14T11:12:11;12.20;99.90
10459;DHT22;5277;48.722;8.736;2024-02-14T11:14:37;12.10;99.90
10459;DHT22;5277;48.722;8.736;2024-02-14T11:17:08;12.00;99.90
10459;DHT22;5277;48.722;8.736;2024-02-14T11:19:35;12.10;99.90
10459;DHT22;5277;48.722;8.736;2024-02-14T11:22:17;12.20;99.90
10459;DHT22;5277;48.722;8.736;2024-02-14T11:24:46;12.20;99.90
10459;DHT22;5277;48.722;8.736;2024-02-14T11:27:11;12.40;99.90
10459;DHT22;5277;48.722;8.736;2024-02-14T11:29:41;12.40;99.90
10459;DHT22;5277;48.722;8.736;2024-02-14T11:32:17;12.50;99.90
10459;DHT22;5277;48.722;8.736;2024-02-14T11:34:53;12.60;99.90
10459;DHT22;5277;48.722;8.736;2024-02-14T11:37:28;12.70;99.90
10459;DHT22;5277;48.722;8.736;2024-02-14T11:39:54;12.80;99.90
10459;DHT22;5277;48.722;8.736;2024-02-14T11:42:23;12.90;99.80
10459;DHT22;5277;48.722;8.736;2024-02-14T11:44:48;13.10;99.70
10459;DHT22;5277;48.722;8.736;2024-02-14T11:47:14;13.30;99.70
10459;DHT22;5277;48.722;8.736;2024-02-14T11:49:40;13.50;99.70
10459;DHT22;5277;48.722;8.736;2024-02-14T11:52:10;13.60;99.10
10459;DHT22;5277;48.722;8.736;2024-02-14T11:54:36;13.80;99.20
10459;DHT22;5277;48.722;8.736;2024-02-14T11:57:03;13.90;99.00
10459;DHT22;5277;48.722;8.736;2024-02-14T11:59:29;14.00;98.80
10459;DHT22;5277;48.722;8.736;2024-02-14T12:01:54;14.20;98.50
10459;DHT22;5277;48.722;8.736;2024-02-14T12:04:23;14.20;98.50
10459;DHT22;5277;48.722;8.736;2024-02-14T12:06:49;14.30;98.00
10459;DHT22;5277;48.722;8.736;2024-02-14T12:09:15;14.40;97.90
10459;DHT22;5277;48.722;8.736;2024-02-14T12:11:41;14.60;97.60
10459;DHT22;5277;48.722;8.736;2024-02-14T12:14:11;14.70;97.90
10459;DHT22;5277;48.722;8.736;2024-02-14T12:16:37;14.80;97.60
10459;DHT22;5277;48.722;8.736;2024-02-14T12:19:06;14.80;97.50
10459;DHT22;5277;48.722;8.736;2024-02-14T12:21:37;14.90;97.20
10459;DHT22;5277;48.722;8.736;2024-02-14T12:24:06;14.90;97.00
10459;DHT22;5277;48.722;8.736;2024-02-14T12:26:32;14.90;97.40
10459;DHT22;5277;48.722;8.736;2024-02-14T12:28:57;14.90;97.30
10459;DHT22;5277;48.722;8.736;2024-02-14T12:31:24;15.00;97.20
10459;DHT22;5277;48.722;8.736;2024-02-14T12:33:49;14.90;97.00
10459;DHT22;5277;48.722;8.736;2024-02-14T12:36:17;15.00;96.50
10459;DHT22;5277;48.722;8.736;2024-02-14T12:38:43;15.00;97.00
10459;DHT22;5277;48.722;8.736;2024-02-14T12:41:10;15.00;96.90
10459;DHT22;5277;48.722;8.736;2024-02-14T12:43:35;15.10;97.20
10459;DHT22;5277;48.722;8.736;2024-02-14T12:46:01;15.10;97.00
10459;DHT22;5277;48.722;8.736;2024-02-14T12:48:29;15.10;96.90
10459;DHT22;5277;48.722;8.736;2024-02-14T12:50:55;15.10;96.80
10459;DHT22;5277;48.722;8.736;2024-02-14T12:53:23;15.00;97.10
10459;DHT22;5277;48.722;8.736;2024-02-14T12:55:49;14.90;97.10
10459;DHT22;5277;48.722;8.736;2024-02-14T12:58:15;14.90;97.30
10459;DHT22;5277;48.722;8.736;2024-02-14T13:00:40;14.90;97.60
10459;DHT22;5277;48.722;8.736;2024-02-14T13:03:08;15.00;97.60
10459;DHT22;5277;48.722;8.736;2024-02-14T13:05:36;15.00;97.70
10459;DHT22;5277;48.722;8.736;2024-02-14T13:08:02;15.00;97.40
10459;DHT22;5277;48.722;8.736;2024-02-14T13:10:27;15.00;97.70
10459;DHT22;5277;48.722;8.736;2024-02-14T13:12:53;15.00;97.70
10459;DHT22;5277;48.722;8.736;2024-02-14T13:15:19;15.10;97.70
10459;DHT22;5277;48.722;8.736;2024-02-14T13:17:44;15.10;97.60
10459;DHT22;5277;48.722;8.736;2024-02-14T13:20:10;15.10;97.70
10459;DHT22;5277;48.722;8.736;2024-02-14T13:22:36;15.10;97.40
10459;DHT22;5277;48.722;8.736;2024-02-14T13:25:02;15.10;97.40
10459;DHT22;5277;48.722;8.736;2024-02-14T13:27:30;15.10;97.70
10459;DHT22;5277;48.722;8.736;2024-02-14T13:29:55;15.00;97.90
10459;DHT22;5277;48.722;8.736;2024-02-14T13:32:21;14.90;97.80
10459;DHT22;5277;48.722;8.736;2024-02-14T13:34:47;14.90;97.80
10459;DHT22;5277;48.722;8.736;2024-02-14T13:37:13;14.90;98.20
10459;DHT22;5277;48.722;8.736;2024-02-14T13:39:40;14.90;98.20
10459;DHT22;5277;48.722;8.736;2024-02-14T13:42:05;14.90;98.10
10459;DHT22;5277;48.722;8.736;2024-02-14T13:44:33;14.90;98.30
10459;DHT22;5277;48.722;8.736;2024-02-14T13:46:59;14.90;98.40
10459;DHT22;5277;48.722;8.736;2024-02-14T13:49:24;14.90;98.20
10459;DHT22;5277;48.722;8.736;2024-02-14T13:51:51;14.90;98.00
10459;DHT22;5277;48.722;8.736;2024-02-14T13:54:18;14.80;98.30
10459;DHT22;5277;48.722;8.736;2024-02-14T13:56:44;14.90;98.50
10459;DHT22;5277;48.722;8.736;2024-02-14T13:59:10;14.90;98.20
10459;DHT22;5277;48.722;8.736;2024-02-14T14:01:36;14.90;97.90
10459;DHT22;5277;48.722;8.736;2024-02-14T14:04:03;14.90;98.20
10459;DHT22;5277;48.722;8.736;2024-02-14T14:06:29;14.90;98.20
10459;DHT22;5277;48.722;8.736;2024-02-14T14:08:55;14.90;98.20
10459;DHT22;5277;48.722;8.736;2024-02-14T14:11:21;14.90;98.40
10459;DHT22;5277;48.722;8.736;2024-02-14T14:13:46;14.90;98.20
10459;DHT22;5277;48.722;8.736;2024-02-14T14:16:12;14.90;98.40
10459;DHT22;5277;48.722;8.736;2024-02-14T14:18:37;14.90;98.60
10459;DHT22;5277;48.722;8.736;2024-02-14T14:21:04;14.90;98.30
10459;DHT22;5277;48.722;8.736;2024-02-14T14:23:30;14.80;98.20
10459;DHT22;5277;48.722;8.736;2024-02-14T14:25:56;14.80;98.00
10459;DHT22;5277;48.722;8.736;2024-02-14T14:28:22;14.80;98.20
10459;DHT22;5277;48.722;8.736;2024-02-14T14:30:53;14.80;98.20
10459;DHT22;5277;48.722;8.736;2024-02-14T14:33:20;14.60;98.40
10459;DHT22;5277;48.722;8.736;2024-02-14T14:35:46;14.50;98.50
10459;DHT22;5277;48.722;8.736;2024-02-14T14:38:11;14.50;98.60
10459;DHT22;5277;48.722;8.736;2024-02-14T14:40:37;14.40;98.80
10459;DHT22;5277;48.722;8.736;2024-02-14T14:43:03;14.40;99.10
10459;DHT22;5277;48.722;8.736;2024-02-14T14:45:29;14.40;98.80
10459;DHT22;5277;48.722;8.736;2024-02-14T14:47:56;14.30;99.50
10459;DHT22;5277;48.722;8.736;2024-02-14T14:50:22;14.40;99.50
10459;DHT22;5277;48.722;8.736;2024-02-14T14:52:48;14.30;99.10
10459;DHT22;5277;48.722;8.736;2024-02-14T14:55:13;14.30;99.10
10459;DHT22;5277;48.722;8.736;2024-02-14T14:57:39;14.30;99.10
10459;DHT22;5277;48.722;8.736;2024-02-14T15:00:08;14.30;99.20
10459;DHT22;5277;48.722;8.736;2024-02-14T15:02:37;14.40;99.40
10459;DHT22;5277;48.722;8.736;2024-02-14T15:05:04;14.40;99.20
10459;DHT22;5277;48.722;8.736;2024-02-14T15:07:30;14.40;98.90
10459;DHT22;5277;48.722;8.736;2024-02-14T15:09:55;14.30;99.10
10459;DHT22;5277;48.722;8.736;2024-02-14T15:12:21;14.30;99.40
10459;DHT22;5277;48.722;8.736;2024-02-14T15:14:51;14.30;99.40
10459;DHT22;5277;48.722;8.736;2024-02-14T15:17:16;14.30;99.30
10459;DHT22;5277;48.722;8.736;2024-02-14T15:19:42;14.30;99.10
10459;DHT22;5277;48.722;8.736;2024-02-14T15:22:07;14.20;99.30
10459;DHT22;5277;48.722;8.736;2024-02-14T15:24:33;14.10;99.80
10459;DHT22;5277;48.722;8.736;2024-02-14T15:27:01;14.10;99.90
10459;DHT22;5277;48.722;8.736;2024-02-14T15:29:28;14.10;99.90
10459;DHT22;5277;48.722;8.736;2024-02-14T15:32:12;14.00;99.70
10459;DHT22;5277;48.722;8.736;2024-02-14T15:34:56;14.00;99.60
10459;DHT22;5277;48.722;8.736;2024-02-14T15:37:22;13.90;99.70
10459;DHT22;5277;48.722;8.736;2024-02-14T15:39:48;13.80;99.90
10459;DHT22;5277;48.722;8.736;2024-02-14T15:42:13;13.80;99.90
10459;DHT22;5277;48.722;8.736;2024-02-14T15:44:39;13.90;99.90
10459;DHT22;5277;48.722;8.736;2024-02-14T15:47:05;13.80;99.90
10459;DHT22;5277;48.722;8.736;2024-02-14T15:49:30;13.70;99.90
10459;DHT22;5277;48.722;8.736;2024-02-14T15:51:56;13.70;99.90